sensor_id;sensor_type;location;lat;lon;timestamp;P1;durP1;ratioP1;P2;durP2;ratioP2
45730;SDS011;31440;48.584;13.460;2023-03-04T00:04:32;41.40;;;22.70;;
45730;SDS011;31440;48.584;13.460;2023-03-04T00:07:37;45.97;;;24.52;;
45730;SDS011;31440;48.584;13.460;2023-03-04T00:10:42;52.78;;;25.70;;
45730;SDS011;31440;48.584;13.460;2023-03-04T00:13:46;44.55;;;22.85;;
45730;SDS011;31440;48.584;13.460;2023-03-04T00:16:51;49.20;;;23.50;;
45730;SDS011;31440;48.584;13.460;2023-03-04T00:23:01;48.33;;;23.35;;
45730;SDS011;31440;48.584;13.460;2023-03-04T00:26:06;46.78;;;24.02;;
45730;SDS011;31440;48.584;13.460;2023-03-04T00:29:13;56.17;;;26.38;;
45730;SDS011;31440;48.584;13.460;2023-03-04T00:32:18;51.33;;;25.80;;
45730;SDS011;31440;48.584;13.460;2023-03-04T00:35:22;51.92;;;25.20;;
45730;SDS011;31440;48.584;13.460;2023-03-04T00:38:27;49.53;;;23.00;;
45730;SDS011;31440;48.584;13.460;2023-03-04T00:41:32;39.60;;;20.35;;
45730;SDS011;31440;48.584;13.460;2023-03-04T00:44:36;41.95;;;21.88;;
45730;SDS011;31440;48.584;13.460;2023-03-04T00:47:41;40.47;;;22.05;;
45730;SDS011;31440;48.584;13.460;2023-03-04T00:53:52;34.20;;;18.10;;
45730;SDS011;31440;48.584;13.460;2023-03-04T00:56:56;31.45;;;17.85;;
45730;SDS011;31440;48.584;13.460;2023-03-04T01:00:01;35.58;;;19.85;;
45730;SDS011;31440;48.584;13.460;2023-03-04T01:06:12;34.65;;;18.55;;
45730;SDS011;31440;48.584;13.460;2023-03-04T01:09:17;33.72;;;19.25;;
45730;SDS011;31440;48.584;13.460;2023-03-04T01:12:21;33.58;;;18.63;;
45730;SDS011;31440;48.584;13.460;2023-03-04T01:15:26;36.40;;;18.00;;
45730;SDS011;31440;48.584;13.460;2023-03-04T01:18:30;37.58;;;20.75;;
45730;SDS011;31440;48.584;13.460;2023-03-04T01:21:35;45.65;;;22.92;;
45730;SDS011;31440;48.584;13.460;2023-03-04T01:24:40;45.25;;;22.88;;
45730;SDS011;31440;48.584;13.460;2023-03-04T01:27:44;42.13;;;22.45;;
45730;SDS011;31440;48.584;13.460;2023-03-04T01:30:49;47.08;;;23.83;;
45730;SDS011;31440;48.584;13.460;2023-03-04T01:36:59;50.53;;;25.17;;
45730;SDS011;31440;48.584;13.460;2023-03-04T01:40:04;51.90;;;26.38;;
45730;SDS011;31440;48.584;13.460;2023-03-04T01:43:17;48.65;;;25.95;;
45730;SDS011;31440;48.584;13.460;2023-03-04T01:46:25;44.58;;;23.42;;
45730;SDS011;31440;48.584;13.460;2023-03-04T01:49:30;44.92;;;22.02;;
45730;SDS011;31440;48.584;13.460;2023-03-04T01:52:41;47.47;;;23.02;;
45730;SDS011;31440;48.584;13.460;2023-03-04T01:55:46;42.25;;;23.73;;
45730;SDS011;31440;48.584;13.460;2023-03-04T01:59:12;42.08;;;21.08;;
45730;SDS011;31440;48.584;13.460;2023-03-04T02:02:21;38.72;;;19.77;;
45730;SDS011;31440;48.584;13.460;2023-03-04T02:05:26;43.38;;;22.30;;
45730;SDS011;31440;48.584;13.460;2023-03-04T02:08:31;40.25;;;20.50;;
45730;SDS011;31440;48.584;13.460;2023-03-04T02:11:38;44.53;;;21.67;;
45730;SDS011;31440;48.584;13.460;2023-03-04T02:14:42;42.58;;;21.60;;
45730;SDS011;31440;48.584;13.460;2023-03-04T02:17:49;47.47;;;21.17;;
45730;SDS011;31440;48.584;13.460;2023-03-04T02:24:18;39.58;;;20.67;;
45730;SDS011;31440;48.584;13.460;2023-03-04T02:27:34;35.95;;;19.38;;
45730;SDS011;31440;48.584;13.460;2023-03-04T02:30:39;49.22;;;21.90;;
45730;SDS011;31440;48.584;13.460;2023-03-04T02:33:44;59.42;;;29.15;;
45730;SDS011;31440;48.584;13.460;2023-03-04T02:36:49;46.70;;;24.17;;
45730;SDS011;31440;48.584;13.460;2023-03-04T02:39:55;58.85;;;27.83;;
45730;SDS011;31440;48.584;13.460;2023-03-04T02:43:00;52.42;;;24.40;;
45730;SDS011;31440;48.584;13.460;2023-03-04T02:46:05;48.95;;;23.85;;
45730;SDS011;31440;48.584;13.460;2023-03-04T02:49:09;58.80;;;26.30;;
45730;SDS011;31440;48.584;13.460;2023-03-04T02:52:19;49.83;;;25.02;;
45730;SDS011;31440;48.584;13.460;2023-03-04T02:55:25;61.15;;;27.65;;
45730;SDS011;31440;48.584;13.460;2023-03-04T02:58:30;55.35;;;25.73;;
45730;SDS011;31440;48.584;13.460;2023-03-04T03:01:35;55.58;;;26.23;;
45730;SDS011;31440;48.584;13.460;2023-03-04T03:04:40;55.55;;;26.92;;
45730;SDS011;31440;48.584;13.460;2023-03-04T03:07:48;55.53;;;24.20;;
45730;SDS011;31440;48.584;13.460;2023-03-04T03:10:53;69.28;;;24.67;;
45730;SDS011;31440;48.584;13.460;2023-03-04T03:13:59;53.65;;;25.27;;
45730;SDS011;31440;48.584;13.460;2023-03-04T03:17:04;57.38;;;25.08;;
45730;SDS011;31440;48.584;13.460;2023-03-04T03:20:09;58.78;;;26.38;;
45730;SDS011;31440;48.584;13.460;2023-03-04T03:26:21;54.90;;;25.77;;
45730;SDS011;31440;48.584;13.460;2023-03-04T03:29:25;59.15;;;24.90;;
45730;SDS011;31440;48.584;13.460;2023-03-04T03:32:30;54.25;;;24.48;;
45730;SDS011;31440;48.584;13.460;2023-03-04T03:35:35;55.55;;;25.23;;
45730;SDS011;31440;48.584;13.460;2023-03-04T03:38:40;60.15;;;25.15;;
45730;SDS011;31440;48.584;13.460;2023-03-04T03:44:50;55.08;;;26.08;;
45730;SDS011;31440;48.584;13.460;2023-03-04T03:47:54;67.03;;;26.15;;
45730;SDS011;31440;48.584;13.460;2023-03-04T03:50:59;74.80;;;25.10;;
45730;SDS011;31440;48.584;13.460;2023-03-04T03:54:05;70.65;;;24.95;;
45730;SDS011;31440;48.584;13.460;2023-03-04T03:57:09;71.05;;;30.83;;
45730;SDS011;31440;48.584;13.460;2023-03-04T04:00:14;116.03;;;26.30;;
45730;SDS011;31440;48.584;13.460;2023-03-04T04:03:21;101.35;;;27.70;;
45730;SDS011;31440;48.584;13.460;2023-03-04T04:06:25;63.60;;;26.17;;
45730;SDS011;31440;48.584;13.460;2023-03-04T04:09:30;55.47;;;24.75;;
45730;SDS011;31440;48.584;13.460;2023-03-04T04:12:35;54.00;;;26.40;;
45730;SDS011;31440;48.584;13.460;2023-03-04T04:15:39;76.90;;;25.20;;
45730;SDS011;31440;48.584;13.460;2023-03-04T04:18:44;88.20;;;24.50;;
45730;SDS011;31440;48.584;13.460;2023-03-04T04:21:48;94.55;;;27.58;;
45730;SDS011;31440;48.584;13.460;2023-03-04T04:27:59;110.40;;;30.42;;
45730;SDS011;31440;48.584;13.460;2023-03-04T04:31:07;92.30;;;29.60;;
45730;SDS011;31440;48.584;13.460;2023-03-04T04:34:12;216.27;;;36.78;;
45730;SDS011;31440;48.584;13.460;2023-03-04T04:37:17;128.48;;;24.38;;
45730;SDS011;31440;48.584;13.460;2023-03-04T04:40:22;94.95;;;29.27;;
45730;SDS011;31440;48.584;13.460;2023-03-04T04:46:32;58.17;;;24.63;;
45730;SDS011;31440;48.584;13.460;2023-03-04T04:49:37;79.43;;;30.35;;
45730;SDS011;31440;48.584;13.460;2023-03-04T04:52:41;111.20;;;25.17;;
45730;SDS011;31440;48.584;13.460;2023-03-04T04:55:46;93.93;;;23.92;;
45730;SDS011;31440;48.584;13.460;2023-03-04T04:58:55;77.82;;;25.23;;
45730;SDS011;31440;48.584;13.460;2023-03-04T05:02:02;136.68;;;29.23;;
45730;SDS011;31440;48.584;13.460;2023-03-04T05:05:06;94.07;;;23.25;;
45730;SDS011;31440;48.584;13.460;2023-03-04T05:11:17;99.22;;;25.35;;
45730;SDS011;31440;48.584;13.460;2023-03-04T05:14:22;75.60;;;23.77;;
45730;SDS011;31440;48.584;13.460;2023-03-04T05:17:27;109.32;;;26.25;;
45730;SDS011;31440;48.584;13.460;2023-03-04T05:20:31;301.55;;;35.75;;
45730;SDS011;31440;48.584;13.460;2023-03-04T05:23:39;163.38;;;28.42;;
45730;SDS011;31440;48.584;13.460;2023-03-04T05:29:50;145.23;;;27.02;;
45730;SDS011;31440;48.584;13.460;2023-03-04T05:32:54;151.18;;;25.58;;
45730;SDS011;31440;48.584;13.460;2023-03-04T05:36:01;190.27;;;30.85;;
45730;SDS011;31440;48.584;13.460;2023-03-04T05:39:07;70.13;;;25.92;;
45730;SDS011;31440;48.584;13.460;2023-03-04T05:42:12;79.63;;;24.50;;
45730;SDS011;31440;48.584;13.460;2023-03-04T05:45:16;115.47;;;24.60;;
45730;SDS011;31440;48.584;13.460;2023-03-04T05:48:21;94.70;;;25.63;;
45730;SDS011;31440;48.584;13.460;2023-03-04T05:51:26;81.97;;;25.55;;
45730;SDS011;31440;48.584;13.460;2023-03-04T05:54:30;76.57;;;23.70;;
45730;SDS011;31440;48.584;13.460;2023-03-04T05:57:35;71.40;;;25.40;;
45730;SDS011;31440;48.584;13.460;2023-03-04T06:00:39;85.25;;;24.77;;
45730;SDS011;31440;48.584;13.460;2023-03-04T06:03:44;67.80;;;25.55;;
45730;SDS011;31440;48.584;13.460;2023-03-04T06:06:51;64.15;;;23.73;;
45730;SDS011;31440;48.584;13.460;2023-03-04T06:09:56;56.25;;;26.48;;
45730;SDS011;31440;48.584;13.460;2023-03-04T06:13:00;65.90;;;26.00;;
45730;SDS011;31440;48.584;13.460;2023-03-04T06:16:05;55.63;;;24.85;;
45730;SDS011;31440;48.584;13.460;2023-03-04T06:19:12;67.18;;;24.15;;
45730;SDS011;31440;48.584;13.460;2023-03-04T06:22:16;71.53;;;24.63;;
45730;SDS011;31440;48.584;13.460;2023-03-04T06:25:21;78.82;;;24.63;;
45730;SDS011;31440;48.584;13.460;2023-03-04T06:28:26;57.38;;;24.48;;
45730;SDS011;31440;48.584;13.460;2023-03-04T06:31:31;98.55;;;26.55;;
45730;SDS011;31440;48.584;13.460;2023-03-04T06:34:35;131.43;;;26.70;;
45730;SDS011;31440;48.584;13.460;2023-03-04T06:37:40;113.32;;;24.60;;
45730;SDS011;31440;48.584;13.460;2023-03-04T06:40:45;181.35;;;30.25;;
45730;SDS011;31440;48.584;13.460;2023-03-04T06:43:52;114.90;;;26.02;;
45730;SDS011;31440;48.584;13.460;2023-03-04T06:50:03;158.38;;;29.15;;
45730;SDS011;31440;48.584;13.460;2023-03-04T06:53:08;84.20;;;26.25;;
45730;SDS011;31440;48.584;13.460;2023-03-04T06:56:13;126.50;;;24.05;;
45730;SDS011;31440;48.584;13.460;2023-03-04T06:59:20;73.30;;;24.73;;
45730;SDS011;31440;48.584;13.460;2023-03-04T07:02:25;288.50;;;33.30;;
45730;SDS011;31440;48.584;13.460;2023-03-04T07:05:30;64.90;;;24.27;;
45730;SDS011;31440;48.584;13.460;2023-03-04T07:08:34;109.43;;;25.58;;
45730;SDS011;31440;48.584;13.460;2023-03-04T07:11:39;70.80;;;26.77;;
45730;SDS011;31440;48.584;13.460;2023-03-04T07:14:43;64.40;;;26.02;;
45730;SDS011;31440;48.584;13.460;2023-03-04T07:17:48;65.57;;;27.65;;
45730;SDS011;31440;48.584;13.460;2023-03-04T07:20:52;71.88;;;29.90;;
45730;SDS011;31440;48.584;13.460;2023-03-04T07:23:57;62.30;;;28.15;;
45730;SDS011;31440;48.584;13.460;2023-03-04T07:27:01;64.93;;;29.85;;
45730;SDS011;31440;48.584;13.460;2023-03-04T07:33:12;64.88;;;26.88;;
45730;SDS011;31440;48.584;13.460;2023-03-04T07:36:17;48.30;;;21.90;;
45730;SDS011;31440;48.584;13.460;2023-03-04T07:39:23;54.13;;;23.33;;
45730;SDS011;31440;48.584;13.460;2023-03-04T07:42:27;43.92;;;19.77;;
45730;SDS011;31440;48.584;13.460;2023-03-04T07:45:39;41.97;;;20.58;;
45730;SDS011;31440;48.584;13.460;2023-03-04T07:48:44;38.20;;;20.65;;
45730;SDS011;31440;48.584;13.460;2023-03-04T07:51:48;42.25;;;21.23;;
45730;SDS011;31440;48.584;13.460;2023-03-04T07:57:59;40.35;;;20.48;;
45730;SDS011;31440;48.584;13.460;2023-03-04T08:01:13;31.83;;;17.30;;
45730;SDS011;31440;48.584;13.460;2023-03-04T08:04:22;40.13;;;18.67;;
45730;SDS011;31440;48.584;13.460;2023-03-04T08:07:27;32.55;;;16.58;;
45730;SDS011;31440;48.584;13.460;2023-03-04T08:10:32;39.90;;;19.75;;
45730;SDS011;31440;48.584;13.460;2023-03-04T08:13:37;35.47;;;17.17;;
45730;SDS011;31440;48.584;13.460;2023-03-04T08:16:41;37.42;;;18.02;;
45730;SDS011;31440;48.584;13.460;2023-03-04T08:19:46;32.83;;;16.65;;
45730;SDS011;31440;48.584;13.460;2023-03-04T08:22:50;30.23;;;15.43;;
45730;SDS011;31440;48.584;13.460;2023-03-04T08:25:55;24.45;;;13.02;;
45730;SDS011;31440;48.584;13.460;2023-03-04T08:29:03;27.42;;;11.70;;
45730;SDS011;31440;48.584;13.460;2023-03-04T08:32:08;30.30;;;13.82;;
45730;SDS011;31440;48.584;13.460;2023-03-04T08:35:13;27.40;;;12.45;;
45730;SDS011;31440;48.584;13.460;2023-03-04T08:38:18;27.42;;;13.18;;
45730;SDS011;31440;48.584;13.460;2023-03-04T08:41:24;26.20;;;12.35;;
45730;SDS011;31440;48.584;13.460;2023-03-04T08:44:30;22.05;;;13.00;;
45730;SDS011;31440;48.584;13.460;2023-03-04T08:47:35;23.08;;;12.32;;
45730;SDS011;31440;48.584;13.460;2023-03-04T08:50:39;22.58;;;12.35;;
45730;SDS011;31440;48.584;13.460;2023-03-04T08:53:44;22.25;;;11.05;;
45730;SDS011;31440;48.584;13.460;2023-03-04T08:56:49;22.45;;;11.43;;
45730;SDS011;31440;48.584;13.460;2023-03-04T08:59:53;23.73;;;11.68;;
45730;SDS011;31440;48.584;13.460;2023-03-04T09:02:58;24.33;;;12.35;;
45730;SDS011;31440;48.584;13.460;2023-03-04T09:06:03;20.25;;;11.70;;
45730;SDS011;31440;48.584;13.460;2023-03-04T09:12:14;22.10;;;10.60;;
45730;SDS011;31440;48.584;13.460;2023-03-04T09:15:18;19.73;;;10.75;;
45730;SDS011;31440;48.584;13.460;2023-03-04T09:18:23;16.67;;;9.65;;
45730;SDS011;31440;48.584;13.460;2023-03-04T09:21:28;17.05;;;9.27;;
45730;SDS011;31440;48.584;13.460;2023-03-04T09:24:33;21.45;;;10.02;;
45730;SDS011;31440;48.584;13.460;2023-03-04T09:30:43;13.82;;;8.45;;
45730;SDS011;31440;48.584;13.460;2023-03-04T09:33:48;16.15;;;7.95;;
45730;SDS011;31440;48.584;13.460;2023-03-04T09:36:56;17.38;;;8.07;;
45730;SDS011;31440;48.584;13.460;2023-03-04T09:40:00;20.05;;;9.18;;
45730;SDS011;31440;48.584;13.460;2023-03-04T09:43:06;16.65;;;9.20;;
45730;SDS011;31440;48.584;13.460;2023-03-04T09:46:28;15.50;;;8.40;;
45730;SDS011;31440;48.584;13.460;2023-03-04T09:49:43;14.95;;;7.40;;
45730;SDS011;31440;48.584;13.460;2023-03-04T09:52:55;15.13;;;7.60;;
45730;SDS011;31440;48.584;13.460;2023-03-04T09:56:05;14.95;;;8.00;;
45730;SDS011;31440;48.584;13.460;2023-03-04T10:02:28;16.30;;;8.60;;
45730;SDS011;31440;48.584;13.460;2023-03-04T10:05:50;14.65;;;7.18;;
45730;SDS011;31440;48.584;13.460;2023-03-04T10:09:15;14.95;;;6.47;;
45730;SDS011;31440;48.584;13.460;2023-03-04T10:12:24;12.27;;;6.32;;
45730;SDS011;31440;48.584;13.460;2023-03-04T10:15:38;14.98;;;7.15;;
45730;SDS011;31440;48.584;13.460;2023-03-04T10:21:53;11.85;;;6.90;;
45730;SDS011;31440;48.584;13.460;2023-03-04T10:24:58;13.10;;;7.45;;
45730;SDS011;31440;48.584;13.460;2023-03-04T10:28:18;13.43;;;6.95;;
45730;SDS011;31440;48.584;13.460;2023-03-04T10:31:29;11.00;;;5.78;;
45730;SDS011;31440;48.584;13.460;2023-03-04T10:34:35;9.85;;;5.75;;
45730;SDS011;31440;48.584;13.460;2023-03-04T10:37:44;14.52;;;6.63;;
45730;SDS011;31440;48.584;13.460;2023-03-04T10:40:52;12.85;;;5.72;;
45730;SDS011;31440;48.584;13.460;2023-03-04T10:44:05;8.02;;;4.40;;
45730;SDS011;31440;48.584;13.460;2023-03-04T10:47:24;9.00;;;5.57;;
45730;SDS011;31440;48.584;13.460;2023-03-04T10:50:31;9.10;;;5.32;;
45730;SDS011;31440;48.584;13.460;2023-03-04T10:53:38;10.30;;;5.80;;
45730;SDS011;31440;48.584;13.460;2023-03-04T10:56:57;10.73;;;5.32;;
45730;SDS011;31440;48.584;13.460;2023-03-04T11:06:31;10.02;;;5.65;;
45730;SDS011;31440;48.584;13.460;2023-03-04T11:09:36;10.85;;;6.07;;
45730;SDS011;31440;48.584;13.460;2023-03-04T11:12:50;9.70;;;5.78;;
45730;SDS011;31440;48.584;13.460;2023-03-04T11:16:00;10.60;;;6.47;;
45730;SDS011;31440;48.584;13.460;2023-03-04T11:19:13;15.43;;;7.78;;
45730;SDS011;31440;48.584;13.460;2023-03-04T11:22:20;15.80;;;8.35;;
45730;SDS011;31440;48.584;13.460;2023-03-04T11:25:27;15.73;;;8.45;;
45730;SDS011;31440;48.584;13.460;2023-03-04T11:31:51;15.88;;;8.55;;
45730;SDS011;31440;48.584;13.460;2023-03-04T11:38:09;15.82;;;8.40;;
45730;SDS011;31440;48.584;13.460;2023-03-04T11:41:18;17.73;;;9.20;;
45730;SDS011;31440;48.584;13.460;2023-03-04T11:44:28;13.45;;;8.52;;
45730;SDS011;31440;48.584;13.460;2023-03-04T11:54:34;16.17;;;7.97;;
45730;SDS011;31440;48.584;13.460;2023-03-04T12:12:22;14.27;;;7.57;;
45730;SDS011;31440;48.584;13.460;2023-03-04T12:15:53;10.20;;;7.10;;
45730;SDS011;31440;48.584;13.460;2023-03-04T12:26:06;15.63;;;9.38;;
45730;SDS011;31440;48.584;13.460;2023-03-04T12:33:18;12.73;;;7.35;;
45730;SDS011;31440;48.584;13.460;2023-03-04T12:36:44;14.32;;;7.68;;
45730;SDS011;31440;48.584;13.460;2023-03-04T12:40:04;12.68;;;7.07;;
45730;SDS011;31440;48.584;13.460;2023-03-04T12:46:17;12.70;;;7.25;;
45730;SDS011;31440;48.584;13.460;2023-03-04T12:49:47;15.82;;;7.88;;
45730;SDS011;31440;48.584;13.460;2023-03-04T12:53:16;12.55;;;8.02;;
45730;SDS011;31440;48.584;13.460;2023-03-04T12:56:38;14.60;;;7.95;;
45730;SDS011;31440;48.584;13.460;2023-03-04T13:09:55;12.80;;;7.45;;
45730;SDS011;31440;48.584;13.460;2023-03-04T13:13:04;13.52;;;7.43;;
45730;SDS011;31440;48.584;13.460;2023-03-04T13:32:34;12.90;;;7.53;;
45730;SDS011;31440;48.584;13.460;2023-03-04T13:42:41;14.98;;;8.13;;
45730;SDS011;31440;48.584;13.460;2023-03-04T13:45:44;11.98;;;7.13;;
45730;SDS011;31440;48.584;13.460;2023-03-04T13:51:57;12.35;;;7.15;;
45730;SDS011;31440;48.584;13.460;2023-03-04T13:58:42;13.48;;;7.65;;
45730;SDS011;31440;48.584;13.460;2023-03-04T14:01:55;14.05;;;7.47;;
45730;SDS011;31440;48.584;13.460;2023-03-04T14:05:13;12.88;;;7.72;;
45730;SDS011;31440;48.584;13.460;2023-03-04T14:08:19;15.40;;;7.82;;
45730;SDS011;31440;48.584;13.460;2023-03-04T14:14:41;13.35;;;7.00;;
45730;SDS011;31440;48.584;13.460;2023-03-04T14:17:48;13.82;;;7.45;;
45730;SDS011;31440;48.584;13.460;2023-03-04T14:20:57;16.13;;;7.50;;
45730;SDS011;31440;48.584;13.460;2023-03-04T14:24:05;15.57;;;7.88;;
45730;SDS011;31440;48.584;13.460;2023-03-04T14:27:12;13.45;;;7.35;;
45730;SDS011;31440;48.584;13.460;2023-03-04T14:30:21;16.45;;;6.68;;
45730;SDS011;31440;48.584;13.460;2023-03-04T14:36:51;15.07;;;7.05;;
45730;SDS011;31440;48.584;13.460;2023-03-04T14:39:56;11.15;;;6.43;;
45730;SDS011;31440;48.584;13.460;2023-03-04T14:43:04;13.05;;;7.07;;
45730;SDS011;31440;48.584;13.460;2023-03-04T14:46:12;15.15;;;6.40;;
45730;SDS011;31440;48.584;13.460;2023-03-04T14:49:22;13.27;;;6.50;;
45730;SDS011;31440;48.584;13.460;2023-03-04T14:52:29;15.25;;;7.50;;
45730;SDS011;31440;48.584;13.460;2023-03-04T14:55:37;11.63;;;7.70;;
45730;SDS011;31440;48.584;13.460;2023-03-04T14:58:52;12.93;;;7.93;;
45730;SDS011;31440;48.584;13.460;2023-03-04T15:02:15;14.77;;;8.45;;
45730;SDS011;31440;48.584;13.460;2023-03-04T15:05:29;17.00;;;8.48;;
45730;SDS011;31440;48.584;13.460;2023-03-04T15:08:37;14.85;;;8.23;;
45730;SDS011;31440;48.584;13.460;2023-03-04T15:12:20;13.05;;;8.10;;
45730;SDS011;31440;48.584;13.460;2023-03-04T15:15:32;14.43;;;8.15;;
45730;SDS011;31440;48.584;13.460;2023-03-04T15:19:01;17.70;;;8.23;;
45730;SDS011;31440;48.584;13.460;2023-03-04T15:22:10;17.15;;;7.70;;
45730;SDS011;31440;48.584;13.460;2023-03-04T15:25:14;20.63;;;9.65;;
45730;SDS011;31440;48.584;13.460;2023-03-04T15:28:24;16.70;;;8.57;;
45730;SDS011;31440;48.584;13.460;2023-03-04T15:31:30;18.85;;;9.80;;
45730;SDS011;31440;48.584;13.460;2023-03-04T15:34:34;19.63;;;8.98;;
45730;SDS011;31440;48.584;13.460;2023-03-04T15:37:39;18.55;;;8.93;;
45730;SDS011;31440;48.584;13.460;2023-03-04T15:40:46;18.20;;;8.73;;
45730;SDS011;31440;48.584;13.460;2023-03-04T15:43:51;17.95;;;9.35;;
45730;SDS011;31440;48.584;13.460;2023-03-04T15:46:57;20.95;;;8.85;;
45730;SDS011;31440;48.584;13.460;2023-03-04T15:50:01;17.50;;;9.13;;
45730;SDS011;31440;48.584;13.460;2023-03-04T15:53:08;20.13;;;9.88;;
45730;SDS011;31440;48.584;13.460;2023-03-04T15:56:24;25.95;;;9.70;;
45730;SDS011;31440;48.584;13.460;2023-03-04T15:59:31;17.50;;;8.95;;
45730;SDS011;31440;48.584;13.460;2023-03-04T16:02:36;19.90;;;9.52;;
45730;SDS011;31440;48.584;13.460;2023-03-04T16:05:40;19.15;;;8.90;;
45730;SDS011;31440;48.584;13.460;2023-03-04T16:08:46;22.08;;;10.45;;
45730;SDS011;31440;48.584;13.460;2023-03-04T16:11:53;22.63;;;10.02;;
45730;SDS011;31440;48.584;13.460;2023-03-04T16:15:00;20.30;;;10.13;;
45730;SDS011;31440;48.584;13.460;2023-03-04T16:18:06;20.38;;;10.07;;
45730;SDS011;31440;48.584;13.460;2023-03-04T16:21:12;17.67;;;10.15;;
45730;SDS011;31440;48.584;13.460;2023-03-04T16:24:21;22.45;;;9.57;;
45730;SDS011;31440;48.584;13.460;2023-03-04T16:27:25;16.75;;;8.85;;
45730;SDS011;31440;48.584;13.460;2023-03-04T16:30:30;24.55;;;10.80;;
45730;SDS011;31440;48.584;13.460;2023-03-04T16:33:35;20.77;;;9.90;;
45730;SDS011;31440;48.584;13.460;2023-03-04T16:36:39;18.40;;;9.90;;
45730;SDS011;31440;48.584;13.460;2023-03-04T16:39:44;20.42;;;10.45;;
45730;SDS011;31440;48.584;13.460;2023-03-04T16:42:52;20.65;;;11.05;;
45730;SDS011;31440;48.584;13.460;2023-03-04T16:45:56;21.77;;;10.68;;
45730;SDS011;31440;48.584;13.460;2023-03-04T16:49:01;20.42;;;9.90;;
45730;SDS011;31440;48.584;13.460;2023-03-04T16:52:06;23.70;;;9.18;;
45730;SDS011;31440;48.584;13.460;2023-03-04T16:55:18;20.00;;;9.23;;
45730;SDS011;31440;48.584;13.460;2023-03-04T16:58:27;24.63;;;10.98;;
45730;SDS011;31440;48.584;13.460;2023-03-04T17:01:32;21.42;;;10.63;;
45730;SDS011;31440;48.584;13.460;2023-03-04T17:04:40;24.02;;;11.25;;
45730;SDS011;31440;48.584;13.460;2023-03-04T17:07:45;21.15;;;10.20;;
45730;SDS011;31440;48.584;13.460;2023-03-04T17:10:49;19.25;;;10.73;;
45730;SDS011;31440;48.584;13.460;2023-03-04T17:13:55;21.75;;;11.68;;
45730;SDS011;31440;48.584;13.460;2023-03-04T17:17:00;21.60;;;11.23;;
45730;SDS011;31440;48.584;13.460;2023-03-04T17:20:07;22.90;;;11.23;;
45730;SDS011;31440;48.584;13.460;2023-03-04T17:23:14;27.80;;;13.18;;
45730;SDS011;31440;48.584;13.460;2023-03-04T17:26:18;22.23;;;11.20;;
45730;SDS011;31440;48.584;13.460;2023-03-04T17:29:24;22.05;;;9.80;;
45730;SDS011;31440;48.584;13.460;2023-03-04T17:32:29;25.02;;;11.95;;
45730;SDS011;31440;48.584;13.460;2023-03-04T17:35:37;26.80;;;11.98;;
45730;SDS011;31440;48.584;13.460;2023-03-04T17:38:42;25.10;;;12.02;;
45730;SDS011;31440;48.584;13.460;2023-03-04T17:41:50;20.33;;;10.48;;
45730;SDS011;31440;48.584;13.460;2023-03-04T17:44:55;23.95;;;11.80;;
45730;SDS011;31440;48.584;13.460;2023-03-04T17:47:59;25.15;;;11.60;;
45730;SDS011;31440;48.584;13.460;2023-03-04T17:51:04;18.55;;;10.57;;
45730;SDS011;31440;48.584;13.460;2023-03-04T17:54:09;20.80;;;9.77;;
45730;SDS011;31440;48.584;13.460;2023-03-04T17:57:16;19.73;;;10.30;;
45730;SDS011;31440;48.584;13.460;2023-03-04T18:00:20;22.58;;;11.45;;
45730;SDS011;31440;48.584;13.460;2023-03-04T18:03:25;27.63;;;12.18;;
45730;SDS011;31440;48.584;13.460;2023-03-04T18:06:29;23.08;;;11.50;;
45730;SDS011;31440;48.584;13.460;2023-03-04T18:09:34;23.42;;;12.00;;
45730;SDS011;31440;48.584;13.460;2023-03-04T18:12:39;20.88;;;10.88;;
45730;SDS011;31440;48.584;13.460;2023-03-04T18:15:43;20.45;;;11.35;;
45730;SDS011;31440;48.584;13.460;2023-03-04T18:18:49;17.80;;;10.50;;
45730;SDS011;31440;48.584;13.460;2023-03-04T18:21:54;21.90;;;10.30;;
45730;SDS011;31440;48.584;13.460;2023-03-04T18:24:59;25.45;;;12.35;;
45730;SDS011;31440;48.584;13.460;2023-03-04T18:28:05;23.05;;;10.93;;
45730;SDS011;31440;48.584;13.460;2023-03-04T18:31:09;24.55;;;10.80;;
45730;SDS011;31440;48.584;13.460;2023-03-04T18:34:14;21.73;;;10.80;;
45730;SDS011;31440;48.584;13.460;2023-03-04T18:37:18;25.52;;;10.77;;
45730;SDS011;31440;48.584;13.460;2023-03-04T18:40:23;21.00;;;10.35;;
45730;SDS011;31440;48.584;13.460;2023-03-04T18:43:28;25.35;;;12.00;;
45730;SDS011;31440;48.584;13.460;2023-03-04T18:46:33;20.52;;;10.55;;
45730;SDS011;31440;48.584;13.460;2023-03-04T18:49:46;21.98;;;10.85;;
45730;SDS011;31440;48.584;13.460;2023-03-04T18:52:51;20.25;;;10.25;;
45730;SDS011;31440;48.584;13.460;2023-03-04T18:55:57;21.73;;;10.45;;
45730;SDS011;31440;48.584;13.460;2023-03-04T18:59:09;23.52;;;11.35;;
45730;SDS011;31440;48.584;13.460;2023-03-04T19:02:24;19.50;;;11.00;;
45730;SDS011;31440;48.584;13.460;2023-03-04T19:05:35;22.80;;;10.95;;
45730;SDS011;31440;48.584;13.460;2023-03-04T19:08:40;23.75;;;11.45;;
45730;SDS011;31440;48.584;13.460;2023-03-04T19:11:45;32.45;;;14.02;;
45730;SDS011;31440;48.584;13.460;2023-03-04T19:14:49;19.10;;;9.68;;
45730;SDS011;31440;48.584;13.460;2023-03-04T19:17:54;24.38;;;11.27;;
45730;SDS011;31440;48.584;13.460;2023-03-04T19:20:59;23.95;;;11.45;;
45730;SDS011;31440;48.584;13.460;2023-03-04T19:24:04;25.02;;;10.73;;
45730;SDS011;31440;48.584;13.460;2023-03-04T19:27:09;22.48;;;10.20;;
45730;SDS011;31440;48.584;13.460;2023-03-04T19:30:13;26.58;;;12.18;;
45730;SDS011;31440;48.584;13.460;2023-03-04T19:33:18;18.65;;;9.15;;
45730;SDS011;31440;48.584;13.460;2023-03-04T19:36:23;20.13;;;9.77;;
45730;SDS011;31440;48.584;13.460;2023-03-04T19:39:29;24.77;;;10.30;;
45730;SDS011;31440;48.584;13.460;2023-03-04T19:42:37;18.00;;;10.60;;
45730;SDS011;31440;48.584;13.460;2023-03-04T19:45:41;20.48;;;10.70;;
45730;SDS011;31440;48.584;13.460;2023-03-04T19:48:46;24.67;;;11.63;;
45730;SDS011;31440;48.584;13.460;2023-03-04T19:51:53;23.58;;;10.98;;
45730;SDS011;31440;48.584;13.460;2023-03-04T19:54:57;22.58;;;11.02;;
45730;SDS011;31440;48.584;13.460;2023-03-04T20:01:21;22.50;;;11.20;;
45730;SDS011;31440;48.584;13.460;2023-03-04T20:04:36;25.02;;;12.57;;
45730;SDS011;31440;48.584;13.460;2023-03-04T20:07:41;24.58;;;12.80;;
45730;SDS011;31440;48.584;13.460;2023-03-04T20:10:47;24.27;;;11.73;;
45730;SDS011;31440;48.584;13.460;2023-03-04T20:13:51;21.30;;;11.45;;
45730;SDS011;31440;48.584;13.460;2023-03-04T20:16:57;21.77;;;10.68;;
45730;SDS011;31440;48.584;13.460;2023-03-04T20:20:05;26.90;;;12.05;;
45730;SDS011;31440;48.584;13.460;2023-03-04T20:23:13;25.65;;;11.52;;
45730;SDS011;31440;48.584;13.460;2023-03-04T20:26:23;27.73;;;11.98;;
45730;SDS011;31440;48.584;13.460;2023-03-04T20:29:28;21.38;;;10.20;;
45730;SDS011;31440;48.584;13.460;2023-03-04T20:32:32;22.00;;;11.40;;
45730;SDS011;31440;48.584;13.460;2023-03-04T20:35:37;27.63;;;11.82;;
45730;SDS011;31440;48.584;13.460;2023-03-04T20:41:49;23.88;;;11.82;;